createdAt,value
2018-12-27T00:02:00.028Z,5.63
2018-12-27T00:04:29.353Z,3.77
2018-12-27T00:06:58.508Z,3.60
2018-12-27T00:09:28.055Z,2.87
2018-12-27T00:11:57.207Z,2.70
2018-12-27T00:14:26.338Z,3.00
2018-12-27T00:16:55.731Z,3.57
2018-12-27T00:19:25.037Z,2.97
2018-12-27T00:21:54.159Z,2.37
2018-12-27T00:24:23.641Z,2.77
2018-12-27T00:26:52.560Z,2.57
2018-12-27T00:29:21.950Z,2.60
2018-12-27T00:31:53.825Z,2.60
2018-12-27T00:34:24.464Z,2.13
2018-12-27T00:36:53.716Z,2.70
2018-12-27T00:39:23.115Z,2.07
2018-12-27T00:41:52.364Z,2.23
2018-12-27T00:44:21.449Z,2.23
2018-12-27T00:46:50.971Z,1.90
2018-12-27T00:49:20.716Z,2.30
2018-12-27T00:51:49.896Z,2.00
2018-12-27T00:54:19.174Z,2.30
2018-12-27T00:56:48.646Z,2.40
2018-12-27T00:59:17.911Z,2.10
2018-12-27T01:01:47.087Z,1.77
2018-12-27T01:04:16.334Z,1.73
2018-12-27T01:06:45.940Z,1.97
2018-12-27T01:09:15.280Z,2.40
2018-12-27T01:11:45.835Z,1.80
2018-12-27T01:14:15.181Z,1.90
2018-12-27T01:16:45.110Z,2.00
2018-12-27T01:19:14.395Z,2.30
2018-12-27T01:21:43.787Z,1.70
2018-12-27T01:24:13.427Z,2.30
2018-12-27T01:26:42.987Z,2.17
2018-12-27T01:29:12.310Z,3.43
2018-12-27T01:31:41.534Z,2.87
2018-12-27T01:34:10.755Z,2.00
2018-12-27T01:36:40.230Z,1.57
2018-12-27T01:39:09.701Z,2.30
2018-12-27T01:41:40.747Z,2.60
2018-12-27T01:44:10.427Z,2.60
2018-12-27T01:46:39.767Z,2.23
2018-12-27T01:49:08.763Z,2.17
2018-12-27T01:51:37.854Z,1.87
2018-12-27T01:54:07.186Z,1.60
2018-12-27T01:56:36.732Z,2.03
2018-12-27T01:59:06.072Z,2.23
2018-12-27T02:01:35.468Z,2.80
2018-12-27T02:04:06.366Z,2.73
2018-12-27T02:06:38.420Z,2.87
2018-12-27T02:09:07.776Z,2.50
2018-12-27T02:11:37.281Z,2.40
2018-12-27T02:14:06.710Z,1.97
2018-12-27T02:16:36.093Z,1.70
2018-12-27T02:19:05.483Z,1.80
2018-12-27T02:21:35.059Z,1.80
2018-12-27T02:24:04.405Z,2.13
2018-12-27T02:26:33.982Z,1.80
2018-12-27T02:29:03.383Z,2.30
2018-12-27T02:31:32.728Z,2.63
2018-12-27T02:34:01.907Z,1.80
2018-12-27T02:36:31.104Z,1.23
2018-12-27T02:39:00.399Z,1.57
2018-12-27T02:41:29.700Z,1.37
2018-12-27T02:43:59.225Z,1.33
2018-12-27T02:46:28.629Z,1.10
2018-12-27T02:48:58.023Z,1.20
2018-12-27T02:51:27.248Z,1.33
2018-12-27T02:53:56.328Z,1.40
2018-12-27T02:56:25.611Z,1.33
2018-12-27T02:58:55.188Z,1.00
2018-12-27T03:01:24.536Z,1.57
2018-12-27T03:03:53.844Z,1.57
2018-12-27T03:06:23.520Z,1.13
2018-12-27T03:08:52.889Z,1.60
2018-12-27T03:11:22.239Z,1.73
2018-12-27T03:13:51.458Z,1.60
2018-12-27T03:16:20.968Z,1.83
2018-12-27T03:18:50.454Z,1.47
2018-12-27T03:21:19.880Z,1.63
2018-12-27T03:23:49.363Z,2.00
2018-12-27T03:26:20.600Z,2.00
2018-12-27T03:28:50.285Z,1.50
2018-12-27T03:31:19.564Z,1.50
2018-12-27T03:33:52.817Z,1.80
2018-12-27T03:36:19.728Z,1.40
2018-12-27T03:38:49.167Z,2.00
2018-12-27T03:41:18.482Z,1.80
2018-12-27T03:43:49.617Z,1.80
2018-12-27T03:46:19.104Z,2.20
2018-12-27T03:48:48.338Z,2.23
2018-12-27T03:51:17.417Z,1.93
2018-12-27T03:53:46.703Z,3.07
2018-12-27T03:56:16.040Z,5.77
2018-12-27T03:58:45.128Z,3.43
2018-12-27T04:01:14.402Z,2.50
2018-12-27T04:03:43.624Z,1.70
2018-12-27T04:06:14.043Z,2.40
2018-12-27T04:08:43.500Z,2.43
2018-12-27T04:11:13.072Z,2.17
2018-12-27T04:13:42.135Z,2.00
2018-12-27T04:16:11.522Z,2.50
2018-12-27T04:18:40.743Z,2.20
2018-12-27T04:21:09.823Z,2.30
2018-12-27T04:23:40.357Z,2.03
2018-12-27T04:26:09.716Z,2.90
2018-12-27T04:28:38.723Z,3.40
2018-12-27T04:31:08.247Z,7.93
2018-12-27T04:33:38.599Z,5.30
2018-12-27T04:36:08.665Z,3.20
2018-12-27T04:38:37.952Z,3.83
2018-12-27T04:41:07.191Z,10.07
2018-12-27T04:43:37.191Z,4.60
2018-12-27T04:46:06.433Z,4.90
2018-12-27T04:48:37.348Z,4.87
2018-12-27T04:51:06.680Z,4.00
2018-12-27T04:53:35.743Z,4.27
2018-12-27T04:56:05.332Z,3.37
2018-12-27T04:58:35.910Z,2.10
2018-12-27T05:01:05.056Z,2.43
2018-12-27T05:03:34.183Z,2.53
2018-12-27T05:06:03.642Z,2.30
2018-12-27T05:08:32.971Z,1.73
2018-12-27T05:11:02.182Z,1.77
2018-12-27T05:13:33.104Z,2.17
2018-12-27T05:16:02.868Z,1.97
2018-12-27T05:18:33.509Z,2.00
2018-12-27T05:21:02.665Z,2.30
2018-12-27T05:23:31.859Z,1.60
2018-12-27T05:26:01.042Z,1.47
2018-12-27T05:28:31.993Z,1.60
2018-12-27T05:31:01.536Z,1.90
2018-12-27T05:33:30.691Z,2.00
2018-12-27T05:35:59.896Z,1.73
2018-12-27T05:38:29.064Z,2.00
2018-12-27T05:40:59.552Z,2.30
2018-12-27T05:43:29.103Z,2.03
2018-12-27T05:45:58.200Z,1.70
2018-12-27T05:48:27.213Z,1.90
2018-12-27T05:50:56.083Z,2.43
2018-12-27T05:53:25.446Z,2.50
2018-12-27T05:55:55.361Z,3.40
2018-12-27T05:58:24.456Z,7.13
2018-12-27T06:00:53.661Z,3.83
2018-12-27T06:03:22.854Z,2.80
2018-12-27T06:05:52.206Z,2.67
2018-12-27T06:08:21.420Z,3.33
2018-12-27T06:10:50.790Z,2.63
2018-12-27T06:13:19.868Z,3.23
2018-12-27T06:15:50.451Z,3.63
2018-12-27T06:18:19.886Z,3.33
2018-12-27T06:20:48.729Z,3.17
2018-12-27T06:23:17.878Z,3.57
2018-12-27T06:25:47.100Z,4.63
2018-12-27T06:28:16.507Z,5.00
2018-12-27T06:30:46.999Z,3.13
2018-12-27T06:33:16.492Z,4.53
2018-12-27T06:35:45.385Z,3.17
2018-12-27T06:38:14.603Z,9.33
2018-12-27T06:40:44.516Z,9.17
2018-12-27T06:43:13.597Z,7.80
2018-12-27T06:45:42.675Z,9.20
2018-12-27T06:48:11.811Z,9.60
2018-12-27T06:50:40.830Z,6.87
2018-12-27T06:53:09.656Z,7.70
2018-12-27T06:55:38.674Z,3.93
2018-12-27T06:58:07.779Z,3.30
2018-12-27T07:00:36.856Z,2.97
2018-12-27T07:03:05.892Z,4.37
2018-12-27T07:05:35.073Z,4.87
2018-12-27T07:08:04.167Z,4.23
2018-12-27T07:10:33.328Z,2.83
2018-12-27T07:13:02.312Z,5.07
2018-12-27T07:15:31.465Z,5.47
2018-12-27T07:18:00.511Z,3.27
2018-12-27T07:20:29.668Z,3.30
2018-12-27T07:22:58.659Z,3.20
2018-12-27T07:25:27.620Z,2.77
2018-12-27T07:27:56.735Z,6.37
2018-12-27T07:30:25.971Z,8.17
2018-12-27T07:32:55.085Z,6.07
2018-12-27T07:35:24.531Z,10.07
2018-12-27T07:37:53.660Z,16.80
2018-12-27T07:40:22.804Z,31.10
2018-12-27T07:42:52.021Z,15.33
2018-12-27T07:45:21.101Z,10.30
2018-12-27T07:47:50.350Z,14.27
2018-12-27T07:50:19.366Z,48.63
2018-12-27T07:52:49.048Z,14.50
2018-12-27T07:55:18.215Z,8.07
2018-12-27T07:57:47.144Z,11.13
2018-12-27T08:00:16.281Z,9.67
2018-12-27T08:02:45.406Z,10.87
2018-12-27T08:05:14.537Z,11.67
2018-12-27T08:07:44.400Z,21.37
2018-12-27T08:10:13.433Z,5.40
2018-12-27T08:12:42.570Z,18.83
2018-12-27T08:15:11.479Z,16.23
2018-12-27T08:17:40.823Z,12.13
2018-12-27T08:20:09.890Z,6.80
2018-12-27T08:22:39.399Z,8.03
2018-12-27T08:25:08.316Z,4.07
2018-12-27T08:27:37.260Z,9.60
2018-12-27T08:30:07.712Z,18.10
2018-12-27T08:32:37.005Z,11.23
2018-12-27T08:35:11.518Z,30.10
2018-12-27T08:37:37.567Z,17.90
2018-12-27T08:40:06.907Z,6.63
2018-12-27T08:42:35.755Z,5.93
2018-12-27T08:45:05.035Z,5.80
2018-12-27T08:47:34.055Z,6.23
2018-12-27T08:50:03.254Z,7.20
2018-12-27T08:52:32.300Z,6.80
2018-12-27T08:55:01.247Z,4.60
2018-12-27T08:57:30.432Z,9.37
2018-12-27T08:59:59.485Z,8.80
2018-12-27T09:02:28.384Z,9.30
2018-12-27T09:04:57.472Z,11.03
2018-12-27T09:07:26.552Z,14.27
2018-12-27T09:09:55.402Z,10.80
2018-12-27T09:12:24.504Z,7.70
2018-12-27T09:14:53.882Z,9.87
2018-12-27T09:17:22.727Z,8.47
2018-12-27T09:19:52.916Z,11.90
2018-12-27T09:22:21.954Z,11.13
2018-12-27T09:24:50.964Z,14.00
2018-12-27T09:27:20.368Z,17.27
2018-12-27T09:29:49.650Z,11.33
2018-12-27T09:32:18.598Z,11.03
2018-12-27T09:34:47.872Z,11.63
2018-12-27T09:37:18.627Z,9.53
2018-12-27T09:39:47.719Z,10.17
2018-12-27T09:42:16.686Z,8.50
2018-12-27T09:44:45.792Z,6.03
2018-12-27T09:47:14.776Z,4.07
2018-12-27T09:49:43.943Z,4.07
2018-12-27T09:52:12.811Z,3.97
2018-12-27T09:54:41.804Z,9.60
2018-12-27T09:57:10.803Z,16.80
2018-12-27T09:59:39.774Z,7.33
2018-12-27T10:02:08.744Z,5.53
2018-12-27T10:04:37.949Z,6.07
2018-12-27T10:07:07.066Z,5.07
2018-12-27T10:09:36.015Z,5.87
2018-12-27T10:12:05.277Z,4.73
2018-12-27T10:14:34.364Z,4.97
2018-12-27T10:17:03.693Z,5.30
2018-12-27T10:19:32.856Z,5.57
2018-12-27T10:22:01.972Z,5.83
2018-12-27T10:24:31.264Z,5.43
2018-12-27T10:27:00.587Z,4.70
2018-12-27T10:29:29.504Z,4.50
2018-12-27T10:31:58.567Z,4.93
2018-12-27T10:34:27.444Z,6.30
2018-12-27T10:36:56.650Z,7.53
2018-12-27T10:39:25.627Z,9.27
2018-12-27T10:41:54.544Z,9.73
2018-12-27T10:44:23.476Z,13.30
2018-12-27T10:46:53.381Z,7.87
2018-12-27T10:49:22.306Z,5.47
2018-12-27T10:51:51.319Z,5.80
2018-12-27T10:54:20.355Z,8.17
2018-12-27T10:56:49.476Z,9.53
2018-12-27T10:59:18.535Z,10.37
2018-12-27T11:01:47.599Z,11.40
2018-12-27T11:04:16.756Z,12.20
2018-12-27T11:06:46.033Z,13.13
2018-12-27T11:09:15.031Z,11.73
2018-12-27T11:11:43.942Z,16.10
2018-12-27T11:14:13.172Z,16.17
2018-12-27T11:16:42.155Z,11.23
2018-12-27T11:19:11.140Z,8.23
2018-12-27T11:21:40.179Z,6.57
2018-12-27T11:24:09.386Z,6.53
2018-12-27T11:26:38.519Z,4.80
2018-12-27T11:29:07.881Z,4.73
2018-12-27T11:31:36.947Z,4.50
2018-12-27T11:34:05.811Z,4.73
2018-12-27T11:36:34.819Z,4.17
2018-12-27T11:39:04.851Z,3.60
2018-12-27T11:41:33.931Z,4.30
2018-12-27T11:44:02.872Z,2.97
2018-12-27T11:46:32.792Z,4.00
2018-12-27T11:49:01.800Z,3.70
2018-12-27T11:51:30.700Z,4.67
2018-12-27T11:53:59.683Z,4.90
2018-12-27T11:56:28.759Z,5.73
2018-12-27T11:58:57.743Z,6.73
2018-12-27T12:01:26.833Z,6.47
2018-12-27T12:03:55.664Z,7.07
2018-12-27T12:06:25.559Z,5.33
2018-12-27T12:08:54.538Z,4.30
2018-12-27T12:11:23.643Z,6.03
2018-12-27T12:13:52.845Z,5.43
2018-12-27T12:16:21.900Z,5.00
2018-12-27T12:18:51.043Z,4.50
2018-12-27T12:21:20.396Z,5.03
2018-12-27T12:23:49.539Z,4.97
2018-12-27T12:26:18.675Z,5.87
2018-12-27T12:28:47.987Z,5.70
2018-12-27T12:31:17.148Z,6.10
2018-12-27T12:33:46.319Z,5.90
2018-12-27T12:36:15.602Z,6.37
2018-12-27T12:38:46.462Z,6.20
2018-12-27T12:41:15.575Z,6.83
2018-12-27T12:43:44.848Z,7.03
2018-12-27T12:46:13.993Z,7.20
2018-12-27T12:48:43.284Z,7.10
2018-12-27T12:51:12.354Z,6.17
2018-12-27T12:53:41.251Z,6.17
2018-12-27T12:56:10.618Z,4.97
2018-12-27T12:58:39.624Z,5.43
2018-12-27T13:01:08.901Z,5.27
2018-12-27T13:03:38.423Z,5.00
2018-12-27T13:06:07.686Z,5.50
2018-12-27T13:08:36.777Z,6.30
2018-12-27T13:11:05.960Z,6.17
2018-12-27T13:13:35.115Z,5.30
2018-12-27T13:16:04.291Z,5.20
2018-12-27T13:18:33.536Z,5.83
2018-12-27T13:21:02.680Z,5.23
2018-12-27T13:23:31.864Z,5.30
2018-12-27T13:26:01.067Z,4.40
2018-12-27T13:28:30.243Z,4.80
2018-12-27T13:30:59.084Z,4.90
2018-12-27T13:33:28.208Z,5.20
2018-12-27T13:35:57.397Z,5.23
2018-12-27T13:38:26.672Z,6.13
2018-12-27T13:40:56.083Z,5.60
2018-12-27T13:43:25.246Z,6.00
2018-12-27T13:45:54.532Z,5.00
2018-12-27T13:48:23.608Z,6.03
2018-12-27T13:50:52.738Z,5.70
2018-12-27T13:53:21.777Z,5.10
2018-12-27T13:55:51.258Z,5.07
2018-12-27T13:58:20.179Z,5.63
2018-12-27T14:00:49.135Z,5.67
2018-12-27T14:03:18.039Z,3.93
2018-12-27T14:05:47.953Z,4.73
2018-12-27T14:08:16.872Z,3.97
2018-12-27T14:10:47.860Z,3.63
2018-12-27T14:13:16.817Z,3.53
2018-12-27T14:15:45.719Z,3.40
2018-12-27T14:18:14.883Z,6.60
2018-12-27T14:20:43.870Z,10.80
2018-12-27T14:23:13.163Z,11.43
2018-12-27T14:25:42.095Z,10.57
2018-12-27T14:28:11.211Z,11.57
2018-12-27T14:30:40.336Z,12.73
2018-12-27T14:33:09.594Z,9.40
2018-12-27T14:35:38.431Z,14.20
2018-12-27T14:38:07.398Z,12.57
2018-12-27T14:40:36.374Z,9.57
2018-12-27T14:43:05.453Z,8.30
2018-12-27T14:45:34.724Z,7.33
2018-12-27T14:48:04.328Z,6.63
2018-12-27T14:50:34.613Z,6.83
2018-12-27T14:53:03.983Z,6.07
2018-12-27T14:55:32.986Z,7.23
2018-12-27T14:58:02.065Z,9.17
2018-12-27T15:00:30.988Z,8.57
2018-12-27T15:02:59.962Z,8.20
2018-12-27T15:05:29.123Z,7.47
2018-12-27T15:07:58.180Z,8.27
2018-12-27T15:10:27.079Z,7.73
2018-12-27T15:12:56.146Z,10.60
2018-12-27T15:15:25.221Z,15.97
2018-12-27T15:17:54.319Z,8.30
2018-12-27T15:20:23.408Z,5.17
2018-12-27T15:22:52.500Z,4.07
2018-12-27T15:25:21.408Z,3.73
2018-12-27T15:27:50.695Z,4.10
2018-12-27T15:30:19.631Z,4.23
2018-12-27T15:32:48.579Z,4.07
2018-12-27T15:35:17.737Z,4.03
2018-12-27T15:37:47.155Z,3.33
2018-12-27T15:40:16.243Z,3.20
2018-12-27T15:42:45.388Z,3.70
2018-12-27T15:45:14.245Z,4.47
2018-12-27T15:47:43.363Z,7.30
2018-12-27T15:50:12.339Z,5.97
2018-12-27T15:52:41.587Z,5.93
2018-12-27T15:55:10.955Z,5.03
2018-12-27T15:57:40.284Z,6.17
2018-12-27T16:00:11.284Z,11.63
2018-12-27T16:02:40.562Z,13.20
2018-12-27T16:05:12.042Z,11.00
2018-12-27T16:07:42.273Z,11.97
2018-12-27T16:10:11.309Z,10.10
2018-12-27T16:12:41.394Z,8.17
2018-12-27T16:15:12.353Z,6.80
2018-12-27T16:17:41.894Z,6.57
2018-12-27T16:20:11.193Z,8.07
2018-12-27T16:22:40.269Z,6.43
2018-12-27T16:25:09.752Z,7.93
2018-12-27T16:27:38.952Z,8.67
2018-12-27T16:30:08.135Z,7.73
2018-12-27T16:32:37.185Z,8.60
2018-12-27T16:35:06.677Z,6.87
2018-12-27T16:37:35.811Z,8.30
2018-12-27T16:40:05.700Z,6.93
2018-12-27T16:42:34.876Z,22.53
2018-12-27T16:45:04.254Z,22.07
2018-12-27T16:47:33.603Z,10.50
2018-12-27T16:50:02.884Z,7.20
2018-12-27T16:52:32.194Z,6.90
2018-12-27T16:55:01.309Z,6.40
2018-12-27T16:57:30.779Z,6.40
2018-12-27T17:00:02.072Z,5.53
2018-12-27T17:02:33.641Z,6.43
2018-12-27T17:05:02.691Z,5.73
2018-12-27T17:07:31.879Z,6.27
2018-12-27T17:10:00.980Z,6.80
2018-12-27T17:12:29.960Z,7.17
2018-12-27T17:14:59.135Z,7.33
2018-12-27T17:17:28.371Z,8.80
2018-12-27T17:19:57.723Z,10.60
2018-12-27T17:22:26.995Z,12.10
2018-12-27T17:24:56.192Z,14.10
2018-12-27T17:27:32.818Z,13.77
2018-12-27T17:30:02.524Z,11.27
2018-12-27T17:32:31.444Z,10.73
2018-12-27T17:35:00.851Z,9.70
2018-12-27T17:37:29.975Z,13.60
2018-12-27T17:39:59.488Z,17.13
2018-12-27T17:42:28.748Z,13.23
2018-12-27T17:44:57.987Z,10.83
2018-12-27T17:47:28.604Z,8.90
2018-12-27T17:49:58.491Z,7.80
2018-12-27T17:52:30.321Z,6.80
2018-12-27T17:54:58.804Z,6.87
2018-12-27T17:57:28.006Z,10.47
2018-12-27T17:59:57.340Z,9.43
2018-12-27T18:02:26.490Z,7.67
2018-12-27T18:04:55.923Z,8.10
2018-12-27T18:07:30.579Z,9.13
2018-12-27T18:09:56.141Z,14.47
2018-12-27T18:12:25.396Z,8.63
2018-12-27T18:15:00.719Z,7.73
2018-12-27T18:17:29.738Z,7.73
2018-12-27T18:19:59.032Z,10.33
2018-12-27T18:22:28.260Z,15.27
2018-12-27T18:24:57.201Z,13.23
2018-12-27T18:27:26.544Z,10.33
2018-12-27T18:29:56.247Z,9.80
2018-12-27T18:32:25.527Z,11.37
2018-12-27T18:34:55.007Z,11.07
2018-12-27T18:37:24.139Z,11.00
2018-12-27T18:39:53.386Z,10.93
2018-12-27T18:42:22.889Z,9.33
2018-12-27T18:44:51.948Z,9.17
2018-12-27T18:47:21.259Z,8.80
2018-12-27T18:49:51.339Z,10.30
2018-12-27T18:52:20.423Z,11.87
2018-12-27T18:54:49.703Z,10.60
2018-12-27T18:57:18.651Z,9.17
2018-12-27T18:59:48.106Z,7.80
2018-12-27T19:02:17.145Z,7.60
2018-12-27T19:04:46.675Z,8.13
2018-12-27T19:07:15.867Z,9.07
2018-12-27T19:09:45.303Z,9.67
2018-12-27T19:12:50.839Z,9.93
2018-12-27T19:15:23.110Z,11.37
2018-12-27T19:18:12.075Z,8.73
2018-12-27T19:20:42.620Z,8.33
2018-12-27T19:23:19.384Z,8.63
2018-12-27T19:25:48.931Z,10.10
2018-12-27T19:28:18.092Z,11.40
2018-12-27T19:30:47.339Z,8.67
2018-12-27T19:33:16.361Z,8.27
2018-12-27T19:35:45.424Z,7.37
2018-12-27T19:38:14.472Z,6.90
2018-12-27T19:40:44.587Z,5.73
2018-12-27T19:43:14.073Z,6.10
2018-12-27T19:45:43.385Z,6.20
2018-12-27T19:48:12.333Z,6.13
2018-12-27T19:50:41.691Z,5.20
2018-12-27T19:53:10.916Z,5.27
2018-12-27T19:55:40.474Z,4.60
2018-12-27T19:58:11.799Z,5.10
2018-12-27T20:00:40.720Z,4.67
2018-12-27T20:03:09.910Z,4.30
2018-12-27T20:05:39.953Z,5.37
2018-12-27T20:08:09.368Z,7.40
2018-12-27T20:10:38.683Z,6.50
2018-12-27T20:13:07.799Z,8.00
2018-12-27T20:15:37.017Z,8.40
2018-12-27T20:18:06.451Z,8.70
2018-12-27T20:20:35.592Z,8.23
2018-12-27T20:23:05.702Z,10.03
2018-12-27T20:25:34.876Z,12.67
2018-12-27T20:28:04.075Z,15.50
2018-12-27T20:30:33.504Z,15.23
2018-12-27T20:33:03.091Z,10.70
2018-12-27T20:35:32.052Z,10.00
2018-12-27T20:38:06.681Z,17.70
2018-12-27T20:40:32.728Z,19.03
2018-12-27T20:43:01.791Z,16.13
2018-12-27T20:45:30.884Z,14.33
2018-12-27T20:47:59.960Z,9.90
2018-12-27T20:50:29.116Z,9.90
2018-12-27T20:52:58.609Z,11.33
2018-12-27T20:55:27.682Z,77.13
2018-12-27T20:57:56.747Z,80.27
2018-12-27T21:00:25.861Z,37.67
2018-12-27T21:02:55.048Z,22.70
2018-12-27T21:05:24.572Z,16.77
2018-12-27T21:07:53.928Z,13.47
2018-12-27T21:10:24.511Z,7.67
2018-12-27T21:12:54.171Z,6.20
2018-12-27T21:15:25.307Z,6.40
2018-12-27T21:17:55.021Z,6.27
2018-12-27T21:20:27.040Z,6.07
2018-12-27T21:22:56.377Z,5.73
2018-12-27T21:25:26.243Z,4.87
2018-12-27T21:27:55.997Z,4.53
2018-12-27T21:30:25.517Z,5.37
2018-12-27T21:32:54.961Z,6.47
2018-12-27T21:35:24.366Z,6.07
2018-12-27T21:37:55.818Z,5.60
2018-12-27T21:40:25.161Z,6.27
2018-12-27T21:42:54.609Z,5.77
2018-12-27T21:45:24.316Z,6.83
2018-12-27T21:47:53.842Z,9.50
2018-12-27T21:50:23.501Z,5.57
2018-12-27T21:52:53.118Z,4.90
2018-12-27T21:55:22.742Z,5.40
2018-12-27T21:57:52.515Z,9.20
2018-12-27T22:00:25.124Z,8.30
2018-12-27T22:02:54.655Z,8.33
2018-12-27T22:05:24.106Z,9.77
2018-12-27T22:07:53.885Z,11.90
2018-12-27T22:10:23.358Z,10.03
2018-12-27T22:12:53.325Z,7.40
2018-12-27T22:15:23.147Z,8.33
2018-12-27T22:17:53.662Z,9.63
2018-12-27T22:20:23.460Z,8.97
2018-12-27T22:22:56.888Z,7.60
2018-12-27T22:25:26.190Z,9.30
2018-12-27T22:27:55.587Z,11.33
2018-12-27T22:30:28.380Z,7.87
2018-12-27T22:32:57.848Z,7.33
2018-12-27T22:35:27.614Z,8.40
2018-12-27T22:37:57.263Z,7.47
2018-12-27T22:40:26.659Z,6.20
2018-12-27T22:42:56.451Z,6.17
2018-12-27T22:45:25.824Z,6.87
2018-12-27T22:47:55.546Z,11.20
2018-12-27T22:50:25.001Z,14.10
2018-12-27T22:52:54.316Z,9.63
2018-12-27T22:55:23.323Z,6.17
2018-12-27T22:57:52.732Z,5.80
2018-12-27T23:00:40.386Z,5.50
2018-12-27T23:03:10.003Z,5.47
2018-12-27T23:05:39.447Z,5.63
2018-12-27T23:08:09.226Z,6.40
2018-12-27T23:10:39.179Z,7.57
2018-12-27T23:13:08.474Z,6.20
2018-12-27T23:15:40.326Z,4.53
2018-12-27T23:18:09.724Z,4.97
2018-12-27T23:20:40.130Z,5.17
2018-12-27T23:23:09.627Z,4.97
2018-12-27T23:25:39.715Z,4.73
2018-12-27T23:28:09.079Z,3.90
2018-12-27T23:30:40.658Z,4.47
2018-12-27T23:33:09.954Z,4.20
2018-12-27T23:35:39.349Z,3.43
2018-12-27T23:38:08.912Z,3.97
2018-12-27T23:40:38.175Z,4.10
2018-12-27T23:43:07.283Z,4.80
2018-12-27T23:45:36.778Z,4.90
2018-12-27T23:48:05.819Z,4.90
2018-12-27T23:50:35.043Z,4.80
2018-12-27T23:53:04.148Z,4.60
2018-12-27T23:55:33.348Z,4.30
2018-12-27T23:58:02.597Z,4.10
